Time;durP1;ratioP1;P1;durP2;ratioP2;P2;SDS_P1;SDS_P2;PMS_P1;PMS_P2;Temp;Humidity;BMP_temperature;BMP_pressure;BME280_temperature;BME280_humidity;BME280_pressure;Samples;Min_cycle;Max_cycle;Signal;HPM_P1;HPM_P2
2024/04/16 00:00:51;;;;;;;4.13;0.52;;;19.10;36.70;;;;;;6758258;26;20004;-69
2024/04/16 00:03:53;;;;;;;3.83;0.63;;;19.10;36.70;;;;;;6800997;26;19993;-69
2024/04/16 00:06:54;;;;;;;1.90;0.47;;;19.10;36.70;;;;;;6830121;26;20128;-67
2024/04/16 00:09:55;;;;;;;3.95;0.90;;;19.10;36.80;;;;;;6821550;26;19989;-69
2024/04/16 00:12:55;;;;;;;2.90;0.63;;;19.10;36.90;;;;;;6786499;26;20001;-69
2024/04/16 00:16:16;;;;;;;1.63;0.30;;;19.10;36.90;;;;;;6799311;26;20076;-67
2024/04/16 00:19:17;;;;;;;3.65;0.77;;;19.20;37.00;;;;;;6795908;26;20449;-68
2024/04/16 00:22:18;;;;;;;3.75;0.50;;;19.20;37.00;;;;;;6811926;26;20032;-68
2024/04/16 00:25:19;;;;;;;1.80;0.40;;;19.10;37.10;;;;;;6765428;26;19994;-68
2024/04/16 00:28:20;;;;;;;5.18;0.65;;;19.10;37.10;;;;;;6790855;26;20013;-68
2024/04/16 00:31:22;;;;;;;0.28;0.20;;;19.10;37.10;;;;;;6818194;26;20009;-70
2024/04/16 00:34:29;;;;;;;1.65;0.63;;;19.20;37.10;;;;;;6806499;26;20282;-68
2024/04/16 00:37:32;;;;;;;4.57;0.30;;;19.10;37.00;;;;;;6803519;26;20020;-70
2024/04/16 00:40:33;;;;;;;0.35;0.20;;;19.10;36.80;;;;;;6821694;26;20000;-69
2024/04/16 00:43:35;;;;;;;1.25;0.40;;;19.10;36.70;;;;;;6813510;26;19998;-68
2024/04/16 00:46:36;;;;;;;2.38;0.40;;;19.00;36.70;;;;;;6828934;26;20524;-68
2024/04/16 00:49:37;;;;;;;4.00;0.40;;;19.00;36.60;;;;;;6815482;26;20078;-69
2024/04/16 00:52:41;;;;;;;0.73;0.30;;;19.00;36.60;;;;;;6791672;26;20175;-69
2024/04/16 00:55:43;;;;;;;3.15;0.52;;;19.00;36.40;;;;;;6818716;26;20666;-69
2024/04/16 00:58:46;;;;;;;2.15;0.68;;;19.00;36.20;;;;;;6836702;26;19997;-69
2024/04/16 01:01:48;;;;;;;1.20;0.35;;;19.00;35.70;;;;;;6795744;26;20424;-67
2024/04/16 01:04:50;;;;;;;2.17;0.38;;;19.00;35.50;;;;;;6796607;26;20058;-67
2024/04/16 01:07:51;;;;;;;2.95;0.28;;;19.00;35.00;;;;;;6786619;26;20464;-68
2024/04/16 01:10:52;;;;;;;1.58;0.45;;;19.00;34.70;;;;;;6829487;25;20002;-68
2024/04/16 01:13:55;;;;;;;0.35;0.22;;;19.10;34.60;;;;;;6771887;26;19997;-67
2024/04/16 01:16:55;;;;;;;0.40;0.30;;;19.00;34.40;;;;;;6820841;25;20093;-68
2024/04/16 01:19:56;;;;;;;0.88;0.30;;;19.00;34.40;;;;;;6795639;26;19998;-69
2024/04/16 01:22:57;;;;;;;1.30;0.25;;;19.00;34.20;;;;;;6772774;26;20006;-68
2024/04/16 01:25:58;;;;;;;1.23;0.77;;;19.00;34.10;;;;;;6781233;26;20351;-67
2024/04/16 01:28:59;;;;;;;0.40;0.20;;;18.90;34.10;;;;;;6825151;26;20036;-69
2024/04/16 01:32:00;;;;;;;0.80;0.63;;;18.90;34.10;;;;;;6823229;26;20074;-68
2024/04/16 01:35:02;;;;;;;0.80;0.40;;;18.90;34.20;;;;;;6831075;26;19994;-69
2024/04/16 01:38:03;;;;;;;0.13;0.13;;;18.90;34.20;;;;;;6818899;26;20035;-68
2024/04/16 01:41:05;;;;;;;0.98;0.40;;;18.90;34.20;;;;;;6822591;26;20041;-68
2024/04/16 01:44:07;;;;;;;0.95;0.22;;;18.90;34.30;;;;;;6824309;25;20002;-68
2024/04/16 01:47:08;;;;;;;0.68;0.50;;;18.90;34.50;;;;;;6835502;26;20020;-70
2024/04/16 01:50:08;;;;;;;0.50;0.32;;;18.90;34.60;;;;;;6776747;26;19994;-68
2024/04/16 01:53:11;;;;;;;0.93;0.35;;;18.80;34.60;;;;;;6805651;26;20033;-69
2024/04/16 01:56:12;;;;;;;2.40;0.55;;;18.80;34.60;;;;;;6815859;26;20148;-68
2024/04/16 01:59:13;;;;;;;0.68;0.38;;;18.80;34.60;;;;;;6803339;26;19997;-69
2024/04/16 02:02:14;;;;;;;4.57;0.40;;;18.80;34.60;;;;;;6814820;26;20020;-68
2024/04/16 02:05:15;;;;;;;1.08;0.32;;;18.70;34.60;;;;;;6780660;26;20005;-69
2024/04/16 02:08:16;;;;;;;2.65;0.40;;;18.70;34.80;;;;;;6777605;26;20001;-67
2024/04/16 02:11:17;;;;;;;3.17;0.28;;;18.70;34.90;;;;;;6794059;26;20012;-67
2024/04/16 02:14:19;;;;;;;1.02;0.20;;;18.70;35.10;;;;;;6773105;26;20006;-68
2024/04/16 02:17:23;;;;;;;0.38;0.20;;;18.60;35.20;;;;;;6806083;26;19993;-68
2024/04/16 02:20:24;;;;;;;1.23;0.50;;;18.60;35.30;;;;;;6774077;26;20361;-67
2024/04/16 02:23:25;;;;;;;3.10;0.32;;;18.50;35.20;;;;;;6755311;26;20126;-68
2024/04/16 02:26:26;;;;;;;0.10;0.10;;;18.50;35.80;;;;;;6823488;26;20038;-68
2024/04/16 02:29:27;;;;;;;1.23;0.40;;;18.50;35.40;;;;;;6816026;26;20011;-68
2024/04/16 02:32:28;;;;;;;5.82;0.55;;;18.50;35.50;;;;;;6795791;26;19997;-68
2024/04/16 02:35:31;;;;;;;1.67;0.35;;;18.40;35.70;;;;;;6821780;26;20009;-68
2024/04/16 02:38:33;;;;;;;0.57;0.32;;;18.30;35.70;;;;;;6831218;26;21300;-69
2024/04/16 02:41:33;;;;;;;0.20;0.20;;;18.30;35.80;;;;;;6795847;26;19994;-67
2024/04/16 02:44:34;;;;;;;0.40;0.40;;;18.30;35.70;;;;;;6804549;26;20012;-68
2024/04/16 02:47:35;;;;;;;1.55;0.30;;;18.20;35.70;;;;;;6796463;26;19997;-68
2024/04/16 02:50:36;;;;;;;3.92;0.50;;;18.20;35.80;;;;;;6793095;26;20017;-68
2024/04/16 02:53:37;;;;;;;3.35;0.57;;;18.30;35.90;;;;;;6792864;26;20008;-68
2024/04/16 02:56:39;;;;;;;0.80;0.40;;;18.30;36.00;;;;;;6779760;26;20022;-69
2024/04/16 02:59:46;;;;;;;0.25;0.25;;;18.30;36.10;;;;;;6794861;26;20062;-69
2024/04/16 03:02:47;;;;;;;3.70;0.60;;;18.40;36.40;;;;;;6810491;26;20004;-67
2024/04/16 03:05:58;;;;;;;1.88;0.28;;;18.40;36.60;;;;;;6777682;26;20442;-67
2024/04/16 03:09:00;;;;;;;0.70;0.55;;;18.30;36.80;;;;;;6834403;26;20323;-68
2024/04/16 03:12:00;;;;;;;1.80;0.38;;;18.30;36.80;;;;;;6822284;26;20045;-68
2024/04/16 03:15:02;;;;;;;3.85;0.30;;;18.30;36.90;;;;;;6800851;26;20020;-69
2024/04/16 03:18:04;;;;;;;0.65;0.50;;;18.30;36.90;;;;;;6800895;26;20575;-67
2024/04/16 03:21:06;;;;;;;3.97;0.47;;;18.40;36.90;;;;;;6798031;26;20002;-68
2024/04/16 03:24:07;;;;;;;0.32;0.30;;;18.40;36.80;;;;;;6793678;26;20226;-69
2024/04/16 03:27:08;;;;;;;5.32;0.30;;;18.30;36.90;;;;;;6781906;26;19994;-69
2024/04/16 03:30:09;;;;;;;0.60;0.30;;;18.30;37.00;;;;;;6801721;26;20077;-68
2024/04/16 03:33:10;;;;;;;1.02;0.22;;;18.30;37.20;;;;;;6779051;26;20338;-68
2024/04/16 03:36:11;;;;;;;3.25;0.50;;;18.30;37.40;;;;;;6790908;26;20009;-69
2024/04/16 03:39:13;;;;;;;0.75;0.30;;;18.20;37.70;;;;;;6798279;26;20402;-69
2024/04/16 03:42:15;;;;;;;0.30;0.15;;;18.10;37.60;;;;;;6818990;25;20132;-69
2024/04/16 03:45:17;;;;;;;1.35;0.40;;;18.10;37.70;;;;;;6800106;26;19994;-70
2024/04/16 03:48:20;;;;;;;0.75;0.40;;;18.10;37.80;;;;;;6770569;26;20013;-68
2024/04/16 03:51:22;;;;;;;3.50;0.30;;;18.00;37.90;;;;;;6804061;26;20104;-67
2024/04/16 03:54:22;;;;;;;2.50;0.25;;;18.00;38.00;;;;;;6819990;26;20002;-69
2024/04/16 03:57:26;;;;;;;1.40;0.40;;;18.00;38.10;;;;;;6787512;26;20476;-70
2024/04/16 04:01:09;;;;;;;2.58;0.50;;;18.00;38.10;;;;;;6791860;26;19998;-68
2024/04/16 04:03:52;;;;;;;2.17;0.52;;;18.00;38.20;;;;;;6815516;26;20010;-68
2024/04/16 04:06:54;;;;;;;1.48;0.30;;;18.00;38.20;;;;;;6815584;26;19997;-70
2024/04/16 04:09:55;;;;;;;0.55;0.25;;;17.90;38.30;;;;;;6830237;25;20004;-69
2024/04/16 04:12:55;;;;;;;1.73;0.40;;;17.90;38.30;;;;;;6783078;26;19997;-69
2024/04/16 04:15:56;;;;;;;0.25;0.25;;;17.90;38.30;;;;;;6783495;25;20432;-69
2024/04/16 04:18:58;;;;;;;1.67;0.65;;;17.90;38.70;;;;;;6795864;26;20012;-68
2024/04/16 04:21:59;;;;;;;5.40;0.60;;;17.70;39.80;;;;;;6793519;25;20001;-69
2024/04/16 04:25:00;;;;;;;1.88;0.45;;;17.50;40.30;;;;;;6790413;26;19998;-69
2024/04/16 04:28:01;;;;;;;2.28;0.70;;;17.20;40.60;;;;;;6808645;26;20035;-70
2024/04/16 04:31:19;;;;;;;4.60;0.50;;;16.90;40.80;;;;;;6790807;26;20002;-66
2024/04/16 04:34:20;;;;;;;12.68;0.82;;;16.70;41.20;;;;;;6790862;26;19990;-69
2024/04/16 04:37:22;;;;;;;6.93;0.70;;;16.40;41.70;;;;;;6793651;26;20821;-68
2024/04/16 04:40:23;;;;;;;1.38;0.38;;;16.20;42.20;;;;;;6798073;26;20009;-67
2024/04/16 04:43:25;;;;;;;5.72;0.28;;;16.00;42.60;;;;;;6789428;26;20413;-67
2024/04/16 04:46:27;;;;;;;7.85;1.10;;;15.80;43.10;;;;;;6802356;26;20121;-66
2024/04/16 04:49:28;;;;;;;8.15;0.22;;;15.70;43.20;;;;;;6830337;26;20005;-67
2024/04/16 04:52:29;;;;;;;5.75;1.42;;;15.60;43.30;;;;;;6809621;26;19997;-67
2024/04/16 04:55:31;;;;;;;1.40;0.70;;;15.50;43.60;;;;;;6791676;26;20077;-68
2024/04/16 04:58:32;;;;;;;5.03;0.80;;;15.40;43.80;;;;;;6786612;26;20013;-67
2024/04/16 05:01:33;;;;;;;2.72;0.80;;;15.20;43.90;;;;;;6821910;26;20657;-69
2024/04/16 05:04:34;;;;;;;0.50;0.40;;;15.20;44.00;;;;;;6787054;26;20101;-68
2024/04/16 05:07:37;;;;;;;5.22;0.82;;;15.10;44.20;;;;;;6817428;25;20010;-68
2024/04/16 05:10:38;;;;;;;3.00;0.32;;;15.00;44.30;;;;;;6799382;26;20017;-69
2024/04/16 05:13:38;;;;;;;1.05;0.32;;;15.00;44.50;;;;;;6784520;26;20296;-69
2024/04/16 05:16:39;;;;;;;2.50;0.43;;;14.90;44.80;;;;;;6756465;26;19997;-70
2024/04/16 05:19:41;;;;;;;4.65;0.50;;;14.80;45.00;;;;;;6824166;26;20069;-69
2024/04/16 05:22:43;;;;;;;2.47;0.45;;;14.80;45.20;;;;;;6800429;26;20484;-67
2024/04/16 05:25:55;;;;;;;2.33;0.75;;;14.80;45.20;;;;;;6815492;25;20452;-68
2024/04/16 05:29:01;;;;;;;1.95;0.70;;;14.70;46.00;;;;;;6791130;26;20108;-68
2024/04/16 05:32:08;;;;;;;5.65;0.60;;;14.50;47.20;;;;;;6764836;26;20005;-69
2024/04/16 05:35:09;;;;;;;1.08;0.35;;;14.30;48.90;;;;;;6826670;25;20004;-71
2024/04/16 05:38:12;;;;;;;1.85;0.50;;;14.00;50.50;;;;;;6801998;26;20017;-69
2024/04/16 05:41:15;;;;;;;0.98;0.20;;;13.70;52.30;;;;;;6796355;26;20287;-68
2024/04/16 05:44:16;;;;;;;7.53;0.50;;;13.30;54.10;;;;;;6763741;26;20028;-69
2024/04/16 05:47:17;;;;;;;3.53;1.17;;;13.00;55.40;;;;;;6798432;26;20393;-66
2024/04/16 05:50:18;;;;;;;0.95;0.50;;;12.70;56.60;;;;;;6775455;26;20293;-66
2024/04/16 05:53:18;;;;;;;5.05;0.50;;;12.60;57.20;;;;;;6769319;26;20002;-68
2024/04/16 05:56:19;;;;;;;2.08;0.63;;;12.40;57.20;;;;;;6811103;26;20062;-67
2024/04/16 05:59:21;;;;;;;4.65;0.45;;;12.30;58.10;;;;;;6788542;26;21445;-68
2024/04/16 06:02:22;;;;;;;4.22;0.57;;;12.20;58.30;;;;;;6830024;26;19998;-69
2024/04/16 06:05:23;;;;;;;0.93;0.32;;;12.00;58.80;;;;;;6824394;26;19993;-69
2024/04/16 06:08:25;;;;;;;2.75;0.70;;;12.00;59.10;;;;;;6819730;26;20010;-68
2024/04/16 06:11:26;;;;;;;6.90;1.20;;;11.90;58.80;;;;;;6799628;26;20007;-68
2024/04/16 06:14:26;;;;;;;1.92;0.50;;;12.00;58.70;;;;;;6759434;26;20016;-68
2024/04/16 06:17:27;;;;;;;1.80;0.25;;;11.90;58.50;;;;;;6796710;26;20128;-70
2024/04/16 06:20:28;;;;;;;4.22;0.57;;;11.90;58.10;;;;;;6758697;26;20034;-69
2024/04/16 06:23:29;;;;;;;2.75;0.40;;;12.00;57.20;;;;;;6798267;26;20070;-68
2024/04/16 06:26:31;;;;;;;2.55;0.65;;;12.00;56.50;;;;;;6780018;26;20093;-67
2024/04/16 06:29:32;;;;;;;0.93;0.50;;;12.10;56.50;;;;;;6816050;26;20009;-69
2024/04/16 06:32:33;;;;;;;2.90;0.52;;;12.20;55.50;;;;;;6804565;26;19994;-69
2024/04/16 06:35:34;;;;;;;0.52;0.30;;;12.30;55.10;;;;;;6787631;26;20284;-67
2024/04/16 06:38:35;;;;;;;1.17;0.50;;;12.50;54.50;;;;;;6762876;26;20010;-68
2024/04/16 06:41:36;;;;;;;0.57;0.40;;;12.70;53.70;;;;;;6821070;26;20414;-69
2024/04/16 06:44:37;;;;;;;3.25;1.00;;;12.90;53.20;;;;;;6760604;26;20016;-69
2024/04/16 06:47:38;;;;;;;0.68;0.20;;;13.00;52.70;;;;;;6790568;26;20028;-69
2024/04/16 06:50:45;;;;;;;2.60;0.73;;;13.10;52.30;;;;;;6788870;26;20012;-67
2024/04/16 06:53:47;;;;;;;2.08;1.08;;;13.30;52.10;;;;;;6828658;26;20036;-69
2024/04/16 06:56:48;;;;;;;1.20;0.38;;;13.50;51.70;;;;;;6800358;26;20005;-69
2024/04/16 06:59:49;;;;;;;3.00;0.80;;;13.60;51.00;;;;;;6794886;26;20024;-69
2024/04/16 07:02:50;;;;;;;0.30;0.25;;;13.70;50.50;;;;;;6792746;26;19989;-67
2024/04/16 07:05:51;;;;;;;2.88;0.73;;;13.80;50.10;;;;;;6830431;25;20038;-68
2024/04/16 07:08:53;;;;;;;4.25;1.00;;;13.90;49.70;;;;;;6777194;26;19994;-69
2024/04/16 07:11:55;;;;;;;2.08;0.70;;;14.00;49.50;;;;;;6799360;26;20386;-69
2024/04/16 07:14:56;;;;;;;3.30;0.63;;;14.00;49.20;;;;;;6794162;26;20016;-68
2024/04/16 07:17:57;;;;;;;3.17;0.85;;;14.00;49.00;;;;;;6819996;26;19998;-68
2024/04/16 07:20:58;;;;;;;4.85;1.20;;;14.00;48.90;;;;;;6793807;26;20049;-69
2024/04/16 07:23:59;;;;;;;7.32;0.98;;;14.10;49.00;;;;;;6824595;26;20089;-68
2024/04/16 07:26:59;;;;;;;8.38;0.98;;;14.20;48.80;;;;;;6797135;26;20001;-67
2024/04/16 07:30:01;;;;;;;6.03;0.77;;;14.20;48.40;;;;;;6821426;26;20299;-67
2024/04/16 07:33:03;;;;;;;3.85;0.85;;;14.30;48.10;;;;;;6792946;26;19997;-68
2024/04/16 07:36:08;;;;;;;6.22;0.80;;;14.40;48.00;;;;;;6789152;26;20022;-68
2024/04/16 07:39:09;;;;;;;6.78;1.15;;;14.50;47.90;;;;;;6820717;26;20001;-67
2024/04/16 07:42:15;;;;;;;4.88;0.80;;;14.60;47.80;;;;;;6828712;26;20401;-67
2024/04/16 07:45:19;;;;;;;7.18;1.42;;;14.70;47.50;;;;;;6771612;26;20444;-67
2024/04/16 07:48:20;;;;;;;4.10;1.08;;;14.70;47.30;;;;;;6803737;26;20480;-69
2024/04/16 07:51:21;;;;;;;2.75;0.65;;;14.80;47.20;;;;;;6826945;26;20076;-68
2024/04/16 07:54:23;;;;;;;6.90;0.95;;;14.90;47.00;;;;;;6794262;26;20013;-69
2024/04/16 07:57:25;;;;;;;2.97;1.25;;;15.00;46.70;;;;;;6823343;26;20492;-69
2024/04/16 08:00:28;;;;;;;1.25;0.60;;;15.10;46.40;;;;;;6782586;26;19997;-68
2024/04/16 08:03:30;;;;;;;1.73;0.77;;;15.10;46.30;;;;;;6796500;26;20104;-68
2024/04/16 08:06:31;;;;;;;5.47;1.17;;;15.10;46.20;;;;;;6793523;26;20017;-66
2024/04/16 08:09:33;;;;;;;4.35;0.93;;;15.10;46.20;;;;;;6771117;25;20400;-67
2024/04/16 08:12:34;;;;;;;1.38;0.68;;;15.00;46.20;;;;;;6834445;26;20020;-69
2024/04/16 08:15:44;;;;;;;3.60;0.63;;;15.00;46.20;;;;;;6798681;26;20086;-66
2024/04/16 08:18:45;;;;;;;2.38;0.73;;;15.10;46.00;;;;;;6829146;26;20412;-67
2024/04/16 08:21:46;;;;;;;6.90;1.02;;;15.30;45.50;;;;;;6795160;26;20002;-69
2024/04/16 08:24:50;;;;;;;3.60;0.90;;;15.40;45.00;;;;;;6795956;26;19994;-67
2024/04/16 08:27:53;;;;;;;9.05;1.38;;;15.50;44.50;;;;;;6818964;26;20001;-68
2024/04/16 08:30:54;;;;;;;4.63;1.00;;;15.50;44.10;;;;;;6768735;26;20425;-68
2024/04/16 08:33:58;;;;;;;0.68;0.30;;;15.60;43.90;;;;;;6827990;25;20016;-67
2024/04/16 08:36:59;;;;;;;9.65;0.63;;;15.60;43.70;;;;;;6763268;26;20006;-67
2024/04/16 08:40:00;;;;;;;2.50;0.90;;;15.70;43.40;;;;;;6762068;26;20001;-71
2024/04/16 08:43:01;;;;;;;1.42;0.50;;;15.70;43.10;;;;;;6822013;26;19997;-68
2024/04/16 08:46:03;;;;;;;4.88;0.70;;;15.80;42.90;;;;;;6790688;26;20025;-68
2024/04/16 08:49:07;;;;;;;1.80;0.68;;;15.80;42.50;;;;;;6792439;26;20058;-68
2024/04/16 08:52:09;;;;;;;7.05;0.90;;;15.90;42.40;;;;;;6818104;25;20081;-69
2024/04/16 08:55:11;;;;;;;5.28;1.35;;;15.90;41.90;;;;;;6814609;26;20057;-67
2024/04/16 08:58:13;;;;;;;0.98;0.47;;;15.90;41.60;;;;;;6834368;25;20185;-68
2024/04/16 09:01:16;;;;;;;4.15;0.88;;;16.00;41.10;;;;;;6833479;25;20037;-68
2024/04/16 09:04:18;;;;;;;11.75;1.05;;;16.10;40.60;;;;;;6830067;25;20029;-68
2024/04/16 09:07:20;;;;;;;3.25;1.02;;;16.10;40.20;;;;;;6831980;26;20145;-67
2024/04/16 09:10:23;;;;;;;5.78;0.93;;;16.20;39.70;;;;;;6806362;26;20016;-69
2024/04/16 09:13:23;;;;;;;8.15;1.02;;;16.30;39.20;;;;;;6835725;25;20396;-68
2024/04/16 09:16:24;;;;;;;0.68;0.35;;;16.30;38.70;;;;;;6830352;26;20033;-70
2024/04/16 09:19:27;;;;;;;4.50;0.68;;;16.40;38.30;;;;;;6826474;26;20568;-69
2024/04/16 09:22:27;;;;;;;6.50;1.08;;;16.40;38.10;;;;;;6805828;26;20008;-67
2024/04/16 09:25:29;;;;;;;5.70;1.00;;;16.30;38.10;;;;;;6816040;26;20008;-68
2024/04/16 09:28:29;;;;;;;8.00;0.98;;;16.30;38.70;;;;;;6822606;26;19998;-68
2024/04/16 09:31:30;;;;;;;6.57;1.00;;;16.20;37.90;;;;;;6803876;26;20432;-68
2024/04/16 09:34:32;;;;;;;4.25;1.13;;;16.20;37.50;;;;;;6834953;25;20013;-69
2024/04/16 09:37:33;;;;;;;6.55;0.70;;;16.20;37.50;;;;;;6816921;26;20037;-68
2024/04/16 09:40:34;;;;;;;10.45;1.25;;;16.20;37.50;;;;;;6823948;26;20017;-68
2024/04/16 09:43:36;;;;;;;4.20;1.30;;;16.30;37.30;;;;;;6834792;26;19998;-69
2024/04/16 09:46:41;;;;;;;1.98;0.60;;;16.30;37.10;;;;;;6827863;26;20021;-69
2024/04/16 09:49:43;;;;;;;1.95;1.25;;;16.50;36.50;;;;;;6835964;25;20012;-68
2024/04/16 09:52:45;;;;;;;3.45;0.98;;;16.70;35.80;;;;;;6834631;26;19994;-70
2024/04/16 09:55:48;;;;;;;2.90;1.00;;;16.70;34.90;;;;;;6788457;26;20021;-67
2024/04/16 09:58:52;;;;;;;2.03;1.10;;;16.60;35.20;;;;;;6832951;26;20173;-67
2024/04/16 10:01:54;;;;;;;7.15;1.02;;;16.60;35.40;;;;;;6818915;26;20066;-69
2024/04/16 10:04:58;;;;;;;6.55;0.85;;;16.60;35.50;;;;;;6793597;26;20002;-68
2024/04/16 10:07:59;;;;;;;8.15;1.20;;;16.80;35.70;;;;;;6810286;25;20008;-69
2024/04/16 10:11:00;;;;;;;1.75;0.98;;;16.90;35.10;;;;;;6779778;26;20031;-69
2024/04/16 10:14:01;;;;;;;1.98;0.80;;;17.10;34.70;;;;;;6749107;25;20152;-68
2024/04/16 10:17:02;;;;;;;0.85;0.52;;;17.30;34.80;;;;;;6829047;26;20386;-68
2024/04/16 10:20:15;;;;;;;1.75;0.52;;;17.50;34.70;;;;;;6775703;26;20058;-68
2024/04/16 10:23:17;;;;;;;2.55;0.88;;;17.50;34.60;;;;;;6792939;26;20008;-67
2024/04/16 10:26:21;;;;;;;3.92;0.95;;;17.40;34.60;;;;;;6804964;26;20036;-67
2024/04/16 10:29:26;;;;;;;5.15;1.08;;;17.20;34.90;;;;;;6792041;26;20045;-69
2024/04/16 10:32:29;;;;;;;7.85;1.10;;;17.00;35.50;;;;;;6831982;26;20061;-68
2024/04/16 10:35:33;;;;;;;5.15;1.65;;;16.80;35.90;;;;;;6834991;26;19993;-69
2024/04/16 10:38:37;;;;;;;1.00;0.57;;;16.80;36.10;;;;;;6817626;26;20081;-68
2024/04/16 10:41:53;;;;;;;1.55;0.93;;;16.80;36.10;;;;;;6813709;26;19998;-68
2024/04/16 10:44:56;;;;;;;5.68;1.00;;;16.90;36.40;;;;;;6830221;26;20484;-69
2024/04/16 10:47:58;;;;;;;2.38;0.70;;;16.90;36.40;;;;;;6802343;26;20009;-68
2024/04/16 10:50:58;;;;;;;17.73;1.27;;;16.90;36.40;;;;;;6786532;26;20008;-67
2024/04/16 10:54:08;;;;;;;4.30;0.85;;;17.00;36.50;;;;;;6793473;26;20434;-68
2024/04/16 10:57:09;;;;;;;1.63;0.70;;;17.00;36.40;;;;;;6792913;26;20432;-69
2024/04/16 11:00:13;;;;;;;8.77;0.90;;;17.00;36.20;;;;;;6788892;25;20025;-68
2024/04/16 11:03:14;;;;;;;1.95;1.13;;;17.00;36.20;;;;;;6827063;26;20021;-69
2024/04/16 11:06:16;;;;;;;6.30;1.10;;;17.00;36.30;;;;;;6797853;26;20054;-68
2024/04/16 11:09:18;;;;;;;2.80;0.70;;;17.10;35.50;;;;;;6771044;26;20123;-68
2024/04/16 11:12:20;;;;;;;1.45;0.85;;;17.30;35.40;;;;;;6780842;26;20014;-68
2024/04/16 11:15:21;;;;;;;3.95;0.65;;;17.40;35.10;;;;;;6829911;26;20005;-69
2024/04/16 11:18:22;;;;;;;2.15;0.93;;;17.90;34.40;;;;;;6796216;26;20001;-68
2024/04/16 11:21:27;;;;;;;1.95;0.70;;;18.30;33.50;;;;;;6788948;26;20074;-68
2024/04/16 11:24:29;;;;;;;0.73;0.50;;;18.30;33.10;;;;;;6779486;26;20144;-69
2024/04/16 11:27:29;;;;;;;3.85;0.77;;;18.50;32.70;;;;;;6830511;26;20070;-67
2024/04/16 11:30:31;;;;;;;0.95;0.50;;;18.90;32.30;;;;;;6818907;26;21350;-68
2024/04/16 11:33:34;;;;;;;2.72;1.00;;;19.00;31.70;;;;;;6779862;26;19997;-68
2024/04/16 11:36:36;;;;;;;6.20;0.65;;;19.10;31.20;;;;;;6751392;26;20306;-67
2024/04/16 11:39:38;;;;;;;8.45;0.80;;;19.10;31.80;;;;;;6783974;26;19990;-67
2024/04/16 11:42:39;;;;;;;6.40;0.47;;;19.40;30.20;;;;;;6748758;26;20438;-67
2024/04/16 11:45:42;;;;;;;1.42;0.43;;;19.80;29.90;;;;;;6804193;26;20080;-66
2024/04/16 11:48:45;;;;;;;7.32;0.95;;;20.30;29.40;;;;;;6825191;26;20066;-67
2024/04/16 11:51:45;;;;;;;0.35;0.28;;;20.70;28.80;;;;;;6821581;26;20002;-68
2024/04/16 11:54:46;;;;;;;5.45;1.17;;;21.20;28.10;;;;;;6819712;25;20053;-68
2024/04/16 11:57:47;;;;;;;1.08;0.70;;;21.00;27.80;;;;;;6781741;26;20078;-66
2024/04/16 12:00:48;;;;;;;1.90;0.80;;;20.60;28.30;;;;;;6811073;26;20029;-68
2024/04/16 12:03:49;;;;;;;2.58;0.60;;;20.20;28.70;;;;;;6794687;26;20005;-69
2024/04/16 12:06:50;;;;;;;5.93;0.85;;;20.00;29.20;;;;;;6798755;26;20049;-67
2024/04/16 12:09:52;;;;;;;4.28;0.75;;;19.80;29.50;;;;;;6782174;26;20097;-67
2024/04/16 12:12:53;;;;;;;4.60;1.10;;;20.10;29.30;;;;;;6786171;26;20070;-68
2024/04/16 12:15:54;;;;;;;1.15;0.75;;;20.10;28.70;;;;;;6763452;26;20009;-68
2024/04/16 12:18:55;;;;;;;1.67;0.80;;;20.50;28.30;;;;;;6777830;26;20116;-68
2024/04/16 12:21:56;;;;;;;7.07;0.70;;;21.20;27.80;;;;;;6781481;26;20102;-68
2024/04/16 12:24:57;;;;;;;2.33;0.77;;;22.20;26.90;;;;;;6801885;26;20001;-68
2024/04/16 12:27:59;;;;;;;2.95;0.75;;;22.80;25.80;;;;;;6786088;26;19993;-69
2024/04/16 12:31:00;;;;;;;1.90;0.65;;;23.30;24.90;;;;;;6783378;26;20022;-68
2024/04/16 12:34:01;;;;;;;14.90;1.00;;;23.70;24.60;;;;;;6804338;26;19993;-69
2024/04/16 12:37:02;;;;;;;1.73;0.63;;;23.40;24.40;;;;;;6834459;26;19989;-67
2024/04/16 12:40:03;;;;;;;2.22;0.70;;;23.50;24.40;;;;;;6803283;26;20134;-68
2024/04/16 12:43:05;;;;;;;2.97;0.80;;;24.00;23.50;;;;;;6836658;26;20532;-68
2024/04/16 12:46:06;;;;;;;2.45;0.90;;;23.90;23.40;;;;;;6804495;26;20000;-68
2024/04/16 12:49:07;;;;;;;7.45;1.00;;;24.00;23.20;;;;;;6812504;26;20278;-67
2024/04/16 12:52:08;;;;;;;1.33;0.55;;;23.60;23.40;;;;;;6821754;26;19997;-70
2024/04/16 12:55:09;;;;;;;1.45;0.77;;;22.90;23.40;;;;;;6796417;26;20033;-68
2024/04/16 12:58:10;;;;;;;2.80;1.20;;;22.20;24.00;;;;;;6803670;26;20405;-68
2024/04/16 13:01:11;;;;;;;1.27;0.55;;;22.10;24.30;;;;;;6835837;25;20002;-68
2024/04/16 13:04:12;;;;;;;5.07;0.68;;;22.00;24.40;;;;;;6834973;26;20038;-68
2024/04/16 13:07:13;;;;;;;3.42;0.70;;;22.10;24.20;;;;;;6834809;25;20017;-68
2024/04/16 13:10:15;;;;;;;3.38;0.90;;;22.20;23.70;;;;;;6835025;26;20001;-68
2024/04/16 13:13:16;;;;;;;2.38;1.00;;;22.20;23.50;;;;;;6804268;26;20009;-68
2024/04/16 13:16:20;;;;;;;4.60;0.75;;;21.90;23.90;;;;;;6834242;26;20002;-70
2024/04/16 13:19:23;;;;;;;3.63;0.60;;;21.70;24.60;;;;;;6835017;26;20539;-67
2024/04/16 13:22:24;;;;;;;0.95;0.40;;;21.60;25.30;;;;;;6835582;26;20283;-68
2024/04/16 13:25:25;;;;;;;1.85;0.55;;;21.50;25.70;;;;;;6834229;26;19998;-66
2024/04/16 13:28:26;;;;;;;5.07;0.85;;;21.00;26.30;;;;;;6833732;26;20034;-68
2024/04/16 13:31:26;;;;;;;7.47;1.27;;;20.30;27.10;;;;;;6804148;26;20619;-69
2024/04/16 13:34:27;;;;;;;3.85;0.60;;;19.70;28.10;;;;;;6802649;26;20073;-70
2024/04/16 13:37:28;;;;;;;4.32;0.88;;;19.30;28.80;;;;;;6833805;26;20013;-70
2024/04/16 13:40:29;;;;;;;3.53;0.98;;;19.10;29.30;;;;;;6836091;25;19997;-66
2024/04/16 13:43:30;;;;;;;4.38;1.00;;;19.10;29.40;;;;;;6806252;26;20326;-67
2024/04/16 13:46:32;;;;;;;6.85;0.75;;;19.10;29.50;;;;;;6837962;26;20013;-67
2024/04/16 13:49:33;;;;;;;2.55;0.47;;;19.00;29.40;;;;;;6837627;26;20116;-69
2024/04/16 13:52:35;;;;;;;2.88;0.47;;;19.00;29.40;;;;;;6807920;26;20473;-69
2024/04/16 13:55:36;;;;;;;3.40;0.70;;;18.70;29.10;;;;;;6837954;26;20001;-67
2024/04/16 13:58:37;;;;;;;1.70;0.70;;;18.50;29.60;;;;;;6807520;26;20720;-67
2024/04/16 14:01:38;;;;;;;4.95;1.13;;;18.20;30.40;;;;;;6797548;26;19997;-67
2024/04/16 14:04:39;;;;;;;1.23;0.40;;;17.90;31.00;;;;;;6839619;26;20002;-67
2024/04/16 14:07:40;;;;;;;2.22;0.43;;;17.70;31.40;;;;;;6837523;26;20460;-67
2024/04/16 14:10:41;;;;;;;2.88;0.57;;;17.50;31.80;;;;;;6807309;26;20068;-67
2024/04/16 14:13:42;;;;;;;1.42;0.80;;;17.20;32.50;;;;;;6835306;26;20004;-68
2024/04/16 14:16:42;;;;;;;3.00;0.43;;;17.20;33.30;;;;;;6806421;26;20012;-66
2024/04/16 14:19:43;;;;;;;2.80;1.02;;;17.10;33.50;;;;;;6776262;25;19994;-67
2024/04/16 14:22:44;;;;;;;8.65;0.88;;;17.00;33.80;;;;;;6839661;25;20017;-70
2024/04/16 14:25:45;;;;;;;4.88;0.60;;;17.10;33.80;;;;;;6836228;25;20052;-67
2024/04/16 14:28:47;;;;;;;6.93;1.08;;;17.30;33.70;;;;;;6790165;26;20106;-66
2024/04/16 14:31:48;;;;;;;5.63;0.90;;;17.40;33.30;;;;;;6805376;26;20424;-68
2024/04/16 14:34:49;;;;;;;10.77;1.08;;;17.50;32.90;;;;;;6837540;26;19993;-68
2024/04/16 14:37:50;;;;;;;5.45;0.60;;;17.60;32.10;;;;;;6835763;26;20321;-67
2024/04/16 14:40:51;;;;;;;9.63;0.93;;;17.60;32.00;;;;;;6836013;26;20090;-66
2024/04/16 14:43:52;;;;;;;3.90;1.00;;;17.70;31.70;;;;;;6836909;26;20017;-67
2024/04/16 14:46:55;;;;;;;1.02;0.28;;;17.90;31.30;;;;;;6838201;25;20085;-67
2024/04/16 14:49:56;;;;;;;5.32;0.90;;;18.00;31.10;;;;;;6776388;26;20436;-67
2024/04/16 14:52:59;;;;;;;1.25;0.57;;;18.20;30.80;;;;;;6804704;26;20053;-67
2024/04/16 14:56:00;;;;;;;3.53;0.80;;;18.20;30.70;;;;;;6836989;26;20086;-67
2024/04/16 14:59:01;;;;;;;4.20;0.80;;;18.30;31.00;;;;;;6835462;25;20020;-67
2024/04/16 15:02:03;;;;;;;1.25;0.63;;;18.20;31.00;;;;;;6805781;26;20009;-67
2024/04/16 15:05:04;;;;;;;2.75;0.65;;;18.10;31.20;;;;;;6836185;26;19997;-67
2024/04/16 15:08:06;;;;;;;2.05;0.57;;;18.00;31.60;;;;;;6835643;25;20089;-66
2024/04/16 15:11:07;;;;;;;10.45;0.90;;;18.00;31.80;;;;;;6836478;26;20636;-67
2024/04/16 15:14:09;;;;;;;3.42;0.70;;;18.00;31.70;;;;;;6838505;25;20012;-66
2024/04/16 15:17:11;;;;;;;3.97;0.80;;;17.90;31.30;;;;;;6838484;26;20013;-67
2024/04/16 15:20:12;;;;;;;5.10;0.77;;;17.80;31.30;;;;;;6836527;26;20402;-69
2024/04/16 15:23:13;;;;;;;3.25;0.82;;;17.80;31.70;;;;;;6838308;25;19997;-67
2024/04/16 15:26:14;;;;;;;3.22;0.77;;;17.80;32.10;;;;;;6828537;26;20001;-68
2024/04/16 15:29:16;;;;;;;4.20;0.88;;;17.90;32.10;;;;;;6833214;26;19990;-68
2024/04/16 15:32:17;;;;;;;3.55;0.50;;;18.20;31.90;;;;;;6806895;26;19997;-68
2024/04/16 15:35:17;;;;;;;2.65;0.57;;;18.50;31.50;;;;;;6832907;26;20202;-66
2024/04/16 15:38:20;;;;;;;3.88;1.02;;;18.80;30.70;;;;;;6838476;26;20402;-66
2024/04/16 15:41:22;;;;;;;1.50;0.55;;;18.90;30.20;;;;;;6806995;26;19994;-67
2024/04/16 15:44:24;;;;;;;4.80;0.57;;;18.80;30.20;;;;;;6805455;26;19993;-68